Terminal Aerodrome Forecast
Issued by NWS Raleigh/Durham, NC

Home | Current Version | Previous Version | Text Only | Print | Product List | Glossary On
Versions: 1 2 3 4 5 6 7 8 9 10 11 12 13 14 15 16 17 18 19 20 21 22 23 24 25 26 27 28 29
636
FTUS42 KRAH 090149 AAA
TAFGSO
TAF AMD
KGSO 090149Z 0902/0924 31005KT P6SM FEW060 BKN100
     FM091600 29010G17KT P6SM SCT050 BKN250=

USA.gov is the U.S. government's official web portal to all federal, state and local government web resources and services.